Time;durP1;ratioP1;P1;durP2;ratioP2;P2;SDS_P1;SDS_P2;PMS_P1;PMS_P2;Temp;Humidity;BMP_temperature;BMP_pressure;BME280_temperature;BME280_humidity;BME280_pressure;Samples;Min_cycle;Max_cycle;Signal;HPM_P1;HPM_P2
2023/08/06 00:02:12;;;;;;;3.00;2.40;;;;;;;16.48;54.07;98971.22;10421908;28;20325;-68
2023/08/06 00:07:14;;;;;;;2.80;2.50;;;;;;;16.51;53.79;98994.22;10430987;28;20243;-68
2023/08/06 00:12:16;;;;;;;2.83;2.60;;;;;;;16.27;54.10;99004.34;10436414;28;20249;-68
2023/08/06 00:17:18;;;;;;;2.53;1.97;;;;;;;17.32;52.85;98907.41;10438446;28;20381;-69
2023/08/06 00:22:20;;;;;;;4.20;3.13;;;;;;;16.02;53.99;99024.31;10431282;28;21010;-69
2023/08/06 00:27:23;;;;;;;2.40;2.20;;;;;;;16.25;54.16;98986.44;10434000;28;20322;-68
2023/08/06 00:32:24;;;;;;;2.43;2.23;;;;;;;16.07;54.65;98982.06;10429264;28;20232;-71
2023/08/06 00:37:26;;;;;;;2.90;2.00;;;;;;;16.00;54.87;98953.59;10434640;28;20231;-68
2023/08/06 00:42:28;;;;;;;2.83;2.20;;;;;;;16.03;54.30;98996.28;10435655;28;20244;-68
2023/08/06 00:47:30;;;;;;;2.63;2.23;;;;;;;14.94;56.22;99057.72;10433112;28;20319;-69
2023/08/06 00:52:33;;;;;;;2.93;2.10;;;;;;;16.77;53.28;98914.47;10434346;28;20232;-68
2023/08/06 00:57:35;;;;;;;5.03;2.30;;;;;;;15.93;54.47;98969.94;10438015;28;20245;-69
2023/08/06 01:02:37;;;;;;;4.03;2.03;;;;;;;15.58;54.99;98975.41;10429957;28;20247;-68
2023/08/06 01:08:16;;;;;;;2.30;2.10;;;;;;;15.93;54.78;98915.16;10433427;28;20262;-68
2023/08/06 01:13:30;;;;;;;2.30;2.10;;;;;;;15.51;54.83;98954.75;10434444;28;20228;-71
2023/08/06 01:18:32;;;;;;;3.67;2.13;;;;;;;16.21;53.98;98890.84;10433571;28;20311;-68
2023/08/06 01:23:35;;;;;;;2.00;1.90;;;;;;;15.92;53.85;98953.97;10429808;28;20240;-68
2023/08/06 01:28:55;;;;;;;3.53;2.50;;;;;;;15.43;55.52;99008.22;10434342;28;20259;-68
2023/08/06 01:33:59;;;;;;;4.00;2.33;;;;;;;15.64;56.62;98934.84;10431156;28;20228;-69
2023/08/06 01:39:01;;;;;;;3.67;2.30;;;;;;;15.81;56.31;98894.44;10436083;28;20232;-69
2023/08/06 01:44:03;;;;;;;4.20;2.40;;;;;;;15.01;57.73;98954.44;10430958;28;20340;-69
2023/08/06 01:49:05;;;;;;;4.37;2.60;;;;;;;15.68;56.42;98902.81;10433546;28;20254;-69
2023/08/06 01:54:07;;;;;;;4.50;2.60;;;;;;;15.09;57.84;98944.13;10431370;28;20282;-69
2023/08/06 01:59:09;;;;;;;2.50;2.30;;;;;;;15.90;56.00;98894.84;10430317;28;20312;-70
2023/08/06 02:04:10;;;;;;;3.63;2.73;;;;;;;15.74;56.56;98887.53;10433505;28;20239;-69
2023/08/06 02:09:12;;;;;;;5.77;2.57;;;;;;;15.82;55.79;98897.94;10431473;28;20242;-69
2023/08/06 02:14:14;;;;;;;2.50;2.30;;;;;;;15.41;57.12;98906.00;10431009;28;20242;-69
2023/08/06 02:19:15;;;;;;;5.13;2.60;;;;;;;15.33;57.64;98914.47;10434379;28;20310;-69
2023/08/06 02:24:17;;;;;;;2.93;2.67;;;;;;;15.38;57.65;98919.16;10431537;28;20246;-69
2023/08/06 02:29:19;;;;;;;6.50;3.10;;;;;;;15.24;58.42;98881.66;10431539;28;20757;-69
2023/08/06 02:34:21;;;;;;;4.63;2.63;;;;;;;15.31;57.82;98886.94;10434717;28;20232;-69
2023/08/06 02:39:22;;;;;;;4.63;2.80;;;;;;;15.17;57.72;98889.06;10434562;28;20325;-69
2023/08/06 02:44:27;;;;;;;4.10;2.40;;;;;;;15.42;57.28;98866.38;10432483;28;20675;-69
2023/08/06 02:49:29;;;;;;;3.00;2.30;;;;;;;15.17;57.58;98888.22;10432524;28;20207;-69
2023/08/06 02:54:31;;;;;;;2.43;1.77;;;;;;;15.47;56.70;98853.84;10432023;28;20326;-69
2023/08/06 02:59:32;;;;;;;1.90;1.53;;;;;;;15.25;56.69;98877.09;10432609;28;20216;-69
2023/08/06 03:04:34;;;;;;;1.70;1.60;;;;;;;14.44;57.44;98954.91;10432711;28;20244;-69
2023/08/06 03:09:36;;;;;;;2.20;1.40;;;;;;;14.70;56.81;98943.72;10432485;28;20212;-69
2023/08/06 03:14:38;;;;;;;2.50;1.43;;;;;;;14.58;57.16;98919.47;10431296;28;20232;-69
2023/08/06 03:19:39;;;;;;;1.93;1.63;;;;;;;14.55;57.42;98906.47;10431570;28;20236;-69
2023/08/06 03:24:41;;;;;;;3.10;1.50;;;;;;;14.44;57.46;98928.81;10431010;28;20251;-69
2023/08/06 03:29:43;;;;;;;4.00;1.93;;;;;;;14.30;58.00;98922.00;10428105;28;20227;-69
2023/08/06 03:34:45;;;;;;;2.10;1.60;;;;;;;14.75;56.53;98914.22;10430914;28;20255;-69
2023/08/06 03:39:46;;;;;;;3.07;1.50;;;;;;;15.43;54.79;98898.50;10427981;28;20376;-69
2023/08/06 03:44:48;;;;;;;4.03;1.80;;;;;;;14.28;57.39;98983.31;10429105;28;20227;-69
2023/08/06 03:49:50;;;;;;;3.47;1.90;;;;;;;14.77;55.98;98939.03;10438836;28;20231;-69
2023/08/06 03:54:52;;;;;;;2.40;2.00;;;;;;;14.63;56.20;98961.03;10441236;28;20316;-69
2023/08/06 03:59:53;;;;;;;2.97;1.90;;;;;;;14.99;55.67;98935.00;10436652;28;20690;-69
2023/08/06 04:04:56;;;;;;;5.23;1.90;;;;;;;15.11;55.50;98931.22;10436626;28;20240;-69
2023/08/06 04:09:59;;;;;;;2.93;1.87;;;;;;;15.43;55.44;98878.81;10436128;28;20228;-69
2023/08/06 04:15:03;;;;;;;5.07;1.80;;;;;;;14.45;56.38;98983.47;10436846;28;20337;-69
2023/08/06 04:20:05;;;;;;;5.10;1.70;;;;;;;15.42;54.60;98942.69;10436370;28;20227;-69
2023/08/06 04:25:07;;;;;;;2.23;1.60;;;;;;;14.80;55.65;98977.34;10435257;28;20252;-69
2023/08/06 04:30:11;;;;;;;1.80;1.60;;;;;;;15.95;53.90;98878.75;10432802;28;20324;-68
2023/08/06 04:35:13;;;;;;;2.70;1.67;;;;;;;15.49;55.16;98884.06;10438120;28;20231;-69
2023/08/06 04:40:15;;;;;;;3.07;1.53;;;;;;;15.94;54.05;98857.44;10436110;28;20262;-69
2023/08/06 04:45:16;;;;;;;3.30;1.90;;;;;;;15.31;54.68;98943.53;10434794;28;20237;-69
2023/08/06 04:50:19;;;;;;;2.27;1.70;;;;;;;15.17;55.50;98897.16;10437619;28;20224;-69
2023/08/06 04:55:21;;;;;;;1.77;1.53;;;;;;;14.57;56.94;98970.84;10436786;28;20231;-69
2023/08/06 05:00:23;;;;;;;1.97;1.80;;;;;;;14.84;57.32;98903.13;10435157;28;20231;-69
2023/08/06 05:05:24;;;;;;;3.00;1.47;;;;;;;15.57;55.87;98850.56;10436780;28;20307;-69
2023/08/06 05:10:27;;;;;;;1.60;1.50;;;;;;;14.17;58.97;98974.13;10434781;28;20251;-69
2023/08/06 05:15:29;;;;;;;2.03;1.50;;;;;;;15.18;56.63;98911.44;10437932;28;20309;-69
2023/08/06 05:20:35;;;;;;;2.03;1.70;;;;;;;15.39;56.83;98897.34;10437215;28;20841;-69
2023/08/06 05:25:37;;;;;;;2.00;1.80;;;;;;;14.03;59.73;98986.91;10436304;28;20260;-69
2023/08/06 05:30:42;;;;;;;2.70;1.90;;;;;;;14.44;59.74;98919.91;10432506;28;20232;-69
2023/08/06 05:35:44;;;;;;;1.20;1.20;;;;;;;14.03;59.69;98946.56;10434172;28;20236;-69
2023/08/06 05:40:46;;;;;;;1.60;1.30;;;;;;;14.45;58.21;98951.19;10434776;28;20239;-69
2023/08/06 05:45:49;;;;;;;1.97;1.30;;;;;;;14.11;59.10;98966.97;10433691;28;20322;-69
2023/08/06 05:50:52;;;;;;;1.73;1.50;;;;;;;14.55;58.65;98940.66;10432709;28;20289;-69
2023/08/06 05:55:53;;;;;;;2.20;1.50;;;;;;;14.84;57.95;98913.91;10433213;28;20232;-69
2023/08/06 06:00:56;;;;;;;2.93;1.57;;;;;;;15.29;56.92;98916.00;10435881;28;20296;-69
2023/08/06 06:06:00;;;;;;;2.27;1.53;;;;;;;15.04;57.75;98925.16;10434284;28;20706;-69
2023/08/06 06:11:02;;;;;;;1.60;1.50;;;;;;;15.60;56.68;98876.22;10432685;28;21015;-69
2023/08/06 06:16:05;;;;;;;1.10;1.10;;;;;;;15.14;57.75;98893.03;10433850;28;21262;-70
2023/08/06 06:21:07;;;;;;;2.10;1.10;;;;;;;14.61;58.57;98953.22;10432314;28;20236;-69
2023/08/06 06:26:09;;;;;;;2.30;1.40;;;;;;;14.78;58.03;98956.84;10433275;28;20235;-70
2023/08/06 06:31:11;;;;;;;1.80;1.70;;;;;;;15.17;57.77;98923.25;10432969;28;20749;-70
2023/08/06 06:36:13;;;;;;;2.10;1.30;;;;;;;15.26;58.16;98890.31;10433216;28;20393;-70
2023/08/06 06:41:15;;;;;;;4.77;1.20;;;;;;;15.70;56.68;98914.16;10432856;28;20763;-69
2023/08/06 06:46:17;;;;;;;3.10;1.30;;;;;;;15.08;58.07;98938.97;10432380;28;20327;-70
2023/08/06 06:51:18;;;;;;;1.20;1.10;;;;;;;14.25;59.83;98989.94;10432220;28;20227;-69
2023/08/06 06:56:20;;;;;;;2.43;1.30;;;;;;;14.87;57.95;98975.41;10432555;28;20322;-69
2023/08/06 07:01:22;;;;;;;1.20;1.10;;;;;;;13.87;60.05;99022.47;10432460;28;20239;-70
2023/08/06 07:06:24;;;;;;;2.33;1.10;;;;;;;14.55;58.30;98992.63;10432765;28;20246;-69
2023/08/06 07:11:25;;;;;;;1.03;1.03;;;;;;;14.47;60.05;98946.38;10435044;28;20234;-69
2023/08/06 07:16:28;;;;;;;1.00;1.00;;;;;;;13.56;61.90;99035.81;10431357;28;20232;-70
2023/08/06 07:21:30;;;;;;;1.00;1.00;;;;;;;14.38;60.17;98953.97;10439978;28;20226;-69
2023/08/06 07:26:32;;;;;;;1.20;1.10;;;;;;;14.09;61.31;98996.78;10439709;28;20263;-70
2023/08/06 07:31:33;;;;;;;1.60;1.50;;;;;;;13.70;61.59;99043.75;10438568;28;20817;-70
2023/08/06 07:36:35;;;;;;;1.30;1.20;;;;;;;14.77;60.28;98909.41;10440982;28;20313;-69
2023/08/06 07:41:37;;;;;;;1.30;1.20;;;;;;;14.85;59.64;98981.00;10439172;28;20739;-70
2023/08/06 07:46:39;;;;;;;1.30;1.30;;;;;;;13.54;61.92;99091.69;10437850;28;20266;-70
2023/08/06 07:51:41;;;;;;;2.60;1.30;;;;;;;15.59;59.26;98918.56;10436057;28;20740;-70
2023/08/06 07:56:42;;;;;;;2.10;1.90;;;;;;;14.97;60.62;98955.97;10437495;28;20236;-69
2023/08/06 08:01:44;;;;;;;1.40;1.30;;;;;;;14.96;60.69;98960.53;10438684;28;20247;-69
2023/08/06 08:06:47;;;;;;;1.80;1.70;;;;;;;14.72;60.87;98983.88;10438152;28;20350;-69
2023/08/06 08:11:50;;;;;;;2.03;1.60;;;;;;;14.63;61.04;98982.56;10435842;28;20284;-69
2023/08/06 08:16:52;;;;;;;1.50;1.40;;;;;;;14.92;60.09;98995.19;10441605;28;20230;-69
2023/08/06 08:21:54;;;;;;;2.73;1.73;;;;;;;14.95;60.54;99000.13;10436382;28;20263;-69
2023/08/06 08:26:56;;;;;;;1.60;1.50;;;;;;;15.15;60.78;98982.81;10437291;28;20243;-69
2023/08/06 08:31:58;;;;;;;1.13;1.10;;;;;;;14.65;60.87;99064.78;10435975;28;20235;-69
2023/08/06 08:37:00;;;;;;;1.40;1.30;;;;;;;15.00;60.07;99049.78;10437859;28;20269;-70
2023/08/06 08:42:03;;;;;;;1.20;1.20;;;;;;;15.18;60.61;99011.16;10436455;28;20231;-69
2023/08/06 08:47:08;;;;;;;2.00;1.40;;;;;;;14.91;61.09;99038.50;10438436;28;20347;-69
2023/08/06 08:52:12;;;;;;;1.10;1.10;;;;;;;14.35;61.47;99116.72;10433945;28;20232;-69
2023/08/06 08:57:14;;;;;;;1.27;1.20;;;;;;;14.36;62.40;99099.53;10436283;28;20315;-69
2023/08/06 09:02:16;;;;;;;2.10;1.53;;;;;;;15.16;60.29;99069.84;10433571;28;20247;-69
2023/08/06 09:07:22;;;;;;;1.63;1.53;;;;;;;15.33;61.17;99006.94;10435518;28;20318;-69
2023/08/06 09:12:23;;;;;;;2.40;1.30;;;;;;;14.55;62.58;99059.94;10434245;28;20342;-68
2023/08/06 09:17:25;;;;;;;1.30;1.20;;;;;;;14.56;63.01;99034.66;10432118;28;20231;-69
2023/08/06 09:22:35;;;;;;;1.20;1.20;;;;;;;14.23;63.76;99082.72;10433909;28;20320;-69
2023/08/06 09:27:37;;;;;;;2.13;1.57;;;;;;;14.99;61.62;99011.25;10434862;28;20686;-69
2023/08/06 09:32:47;;;;;;;1.30;1.30;;;;;;;13.88;63.50;99112.88;10432312;28;20583;-69
2023/08/06 09:37:49;;;;;;;2.30;1.20;;;;;;;15.25;61.16;98999.22;10431494;28;20267;-69
2023/08/06 09:42:51;;;;;;;1.30;1.20;;;;;;;15.01;61.23;99064.91;10431753;28;20323;-69
2023/08/06 09:47:56;;;;;;;1.20;1.20;;;;;;;14.73;61.80;99071.72;10436393;28;20326;-69
2023/08/06 09:52:59;;;;;;;1.20;1.10;;;;;;;14.81;60.75;99057.09;10433148;28;20348;-70
2023/08/06 09:58:02;;;;;;;1.27;1.17;;;;;;;14.50;60.86;99126.28;10433642;28;20251;-69
2023/08/06 10:03:06;;;;;;;1.50;1.40;;;;;;;15.78;58.88;99043.25;10429956;28;20240;-69
2023/08/06 10:08:08;;;;;;;1.73;1.63;;;;;;;14.45;61.06;99139.59;10432684;28;20314;-69
2023/08/06 10:13:10;;;;;;;1.63;1.53;;;;;;;15.61;59.46;99035.06;10432211;28;20227;-69
2023/08/06 10:18:17;;;;;;;1.60;1.50;;;;;;;14.67;59.87;99153.41;10433839;28;20231;-70
2023/08/06 10:23:20;;;;;;;2.20;1.93;;;;;;;15.79;57.73;99082.69;10433500;28;20233;-69
2023/08/06 10:28:35;;;;;;;1.90;1.80;;;;;;;15.27;58.40;99131.03;10433063;28;20285;-69
2023/08/06 10:33:44;;;;;;;2.03;1.60;;;;;;;15.39;57.62;99121.09;10429219;28;20289;-70
2023/08/06 10:38:50;;;;;;;3.37;1.80;;;;;;;15.19;56.83;99218.41;10435399;28;20224;-69
2023/08/06 10:43:52;;;;;;;3.50;1.90;;;;;;;14.94;57.01;99223.94;10429273;28;20228;-68
2023/08/06 10:48:54;;;;;;;2.73;2.23;;;;;;;15.04;57.05;99213.44;10430344;28;20228;-70
2023/08/06 10:53:57;;;;;;;5.87;2.30;;;;;;;14.25;58.33;99279.75;10432133;28;20320;-68
2023/08/06 10:58:59;;;;;;;3.23;2.00;;;;;;;14.62;57.29;99272.53;10421683;28;20227;-69
2023/08/06 11:06:20;;;;;;;2.47;2.10;;;;;;;14.39;58.80;99201.34;10408807;28;21453;-70
2023/08/06 11:11:23;;;;;;;3.03;2.70;;;;;;;13.90;58.54;99264.88;10371755;28;20745;-69
2023/08/06 11:16:26;;;;;;;2.83;2.30;;;;;;;13.69;59.09;99266.09;10364567;28;20237;-70
2023/08/06 11:21:29;;;;;;;2.60;2.40;;;;;;;14.19;57.68;99247.31;10354877;28;20224;-69
2023/08/06 11:26:31;;;;;;;2.30;2.10;;;;;;;14.02;57.76;99273.09;10367655;28;20804;-68
2023/08/06 11:31:32;;;;;;;3.60;2.70;;;;;;;15.00;56.21;99196.09;10364800;28;20237;-67
2023/08/06 11:36:40;;;;;;;3.10;2.60;;;;;;;14.03;57.56;99299.75;10370452;28;20225;-69
2023/08/06 11:41:44;;;;;;;4.97;2.70;;;;;;;14.02;56.60;99333.09;10367902;28;20241;-70
2023/08/06 11:46:55;;;;;;;2.83;2.60;;;;;;;15.16;55.02;99231.53;10365930;28;20332;-68
2023/08/06 11:51:57;;;;;;;2.87;2.20;;;;;;;14.56;55.44;99325.44;10367287;28;20827;-65
2023/08/06 11:57:02;;;;;;;4.30;2.33;;;;;;;14.80;56.65;99271.72;10365663;28;20228;-66
2023/08/06 12:02:08;;;;;;;2.67;2.23;;;;;;;14.80;56.41;99260.97;10364005;28;20228;-70
2023/08/06 12:07:09;;;;;;;2.40;2.20;;;;;;;15.90;53.88;99250.16;10363706;28;20322;-69
2023/08/06 12:12:11;;;;;;;2.63;1.90;;;;;;;15.03;54.97;99324.97;10362062;28;20712;-69
2023/08/06 12:17:13;;;;;;;3.53;2.03;;;;;;;15.97;53.81;99253.56;10338386;28;20721;-69
2023/08/06 12:22:15;;;;;;;2.37;2.10;;;;;;;16.63;52.44;99267.78;10336223;28;20636;-69
2023/08/06 12:27:17;;;;;;;3.23;2.60;;;;;;;15.90;53.68;99374.28;10336203;28;20233;-70
2023/08/06 12:32:19;;;;;;;2.20;2.00;;;;;;;15.38;55.82;99345.88;10334850;28;20320;-71
2023/08/06 12:37:21;;;;;;;1.70;1.60;;;;;;;15.43;55.26;99335.22;10343031;28;20229;-71
2023/08/06 12:42:24;;;;;;;1.53;1.43;;;;;;;16.28;53.48;99257.84;10333029;28;20240;-68
2023/08/06 12:47:25;;;;;;;1.40;1.40;;;;;;;15.69;54.38;99322.50;10336096;28;20241;-69
2023/08/06 12:52:27;;;;;;;1.43;1.33;;;;;;;15.56;54.18;99371.22;10337482;28;20245;-65
2023/08/06 12:57:29;;;;;;;1.43;1.40;;;;;;;14.67;55.25;99418.09;10339420;28;20233;-67
2023/08/06 13:02:51;;;;;;;1.47;1.37;;;;;;;14.58;55.80;99361.03;10341663;28;20234;-67
2023/08/06 13:07:53;;;;;;;1.50;1.50;;;;;;;15.44;53.77;99319.91;10339028;28;20234;-67
2023/08/06 13:12:54;;;;;;;1.50;1.40;;;;;;;14.94;53.63;99326.31;10340104;28;20232;-67
2023/08/06 13:17:56;;;;;;;1.53;1.43;;;;;;;16.36;51.59;99294.47;10338288;28;20228;-67
2023/08/06 13:23:00;;;;;;;1.30;1.20;;;;;;;15.33;52.30;99426.59;10340652;28;20232;-66
2023/08/06 13:28:05;;;;;;;1.37;1.27;;;;;;;16.53;50.99;99308.88;10337895;28;20236;-66
2023/08/06 13:33:08;;;;;;;1.70;1.60;;;;;;;16.32;51.88;99341.88;10345401;28;20300;-69
2023/08/06 13:38:10;;;;;;;1.40;1.27;;;;;;;16.52;50.30;99349.66;10338373;28;20244;-68
2023/08/06 13:43:12;;;;;;;1.80;1.70;;;;;;;16.44;48.57;99327.31;10343791;28;20286;-69
2023/08/06 13:48:14;;;;;;;1.60;1.50;;;;;;;17.50;47.96;99284.94;10338906;28;20651;-66
2023/08/06 13:53:15;;;;;;;1.37;1.37;;;;;;;16.16;48.16;99445.91;10334901;28;20264;-66
2023/08/06 13:58:17;;;;;;;1.40;1.30;;;;;;;16.44;48.46;99367.81;10339077;28;20606;-66
2023/08/06 14:03:19;;;;;;;1.67;1.57;;;;;;;16.46;50.66;99410.81;10335051;28;20735;-66
2023/08/06 14:08:21;;;;;;;1.60;1.50;;;;;;;16.04;51.75;99362.22;10339361;28;20239;-64
2023/08/06 14:13:22;;;;;;;1.67;1.57;;;;;;;16.41;51.41;99327.78;10336325;28;20275;-68
2023/08/06 14:18:25;;;;;;;5.47;1.70;;;;;;;16.92;49.99;99305.66;10338436;28;20328;-67
2023/08/06 14:23:26;;;;;;;3.43;1.53;;;;;;;15.06;51.75;99415.28;10335676;28;20650;-65
2023/08/06 14:28:28;;;;;;;1.80;1.50;;;;;;;16.54;49.46;99337.53;10339830;28;20233;-64
2023/08/06 14:33:30;;;;;;;2.47;1.30;;;;;;;16.92;48.72;99348.91;10333540;28;20241;-66
2023/08/06 14:38:31;;;;;;;2.60;1.60;;;;;;;17.42;48.63;99304.25;10333497;28;20276;-68
2023/08/06 14:43:35;;;;;;;1.97;1.70;;;;;;;16.51;49.13;99408.22;10333910;28;20234;-68
2023/08/06 14:48:37;;;;;;;1.77;1.67;;;;;;;17.12;48.23;99397.22;10334975;28;20225;-70
2023/08/06 14:53:39;;;;;;;2.40;1.40;;;;;;;17.31;47.82;99387.91;10336806;28;20649;-68
2023/08/06 14:58:41;;;;;;;1.40;1.30;;;;;;;16.22;49.68;99402.63;10338356;28;20712;-67
2023/08/06 15:03:43;;;;;;;1.67;1.57;;;;;;;15.98;52.60;99349.66;10340044;28;20345;-68
2023/08/06 15:08:46;;;;;;;2.23;1.70;;;;;;;17.31;50.49;99363.56;10336561;28;20669;-68
2023/08/06 15:13:48;;;;;;;2.10;1.60;;;;;;;17.30;50.24;99405.16;10338803;28;20245;-68
2023/08/06 15:18:50;;;;;;;1.63;1.40;;;;;;;17.04;50.23;99466.00;10331325;28;20274;-69
2023/08/06 15:23:52;;;;;;;1.33;1.33;;;;;;;16.64;51.46;99409.91;10333661;28;20262;-67
2023/08/06 15:28:53;;;;;;;1.63;1.50;;;;;;;16.39;51.22;99424.41;10331550;28;20310;-67
2023/08/06 15:33:55;;;;;;;1.73;1.63;;;;;;;16.87;50.68;99365.84;10335031;28;20320;-69
2023/08/06 15:38:59;;;;;;;5.40;1.27;;;;;;;15.59;51.47;99484.00;10332931;28;20686;-68
2023/08/06 15:44:01;;;;;;;1.83;1.40;;;;;;;15.41;51.63;99506.38;10332661;28;20321;-71
2023/08/06 15:49:04;;;;;;;2.43;1.90;;;;;;;15.68;51.90;99444.91;10336942;28;20311;-70
2023/08/06 15:54:06;;;;;;;2.03;1.57;;;;;;;14.86;52.16;99517.84;10341920;28;20288;-70
2023/08/06 15:59:31;;;;;;;2.27;1.77;;;;;;;14.99;53.37;99434.22;10345989;28;20736;-70
2023/08/06 16:04:32;;;;;;;1.90;1.80;;;;;;;16.06;51.90;99393.31;10300137;28;20325;-70
2023/08/06 16:09:34;;;;;;;1.87;1.70;;;;;;;15.96;53.00;99443.50;10302248;28;20210;-70
2023/08/06 16:14:36;;;;;;;2.23;1.87;;;;;;;15.62;53.21;99495.19;10303128;28;20240;-70
2023/08/06 16:19:38;;;;;;;4.13;2.30;;;;;;;16.06;53.63;99432.97;10301086;28;20221;-70
2023/08/06 16:24:40;;;;;;;4.47;1.97;;;;;;;15.97;53.14;99428.97;10301553;28;21770;-67
2023/08/06 16:29:42;;;;;;;1.90;1.80;;;;;;;16.76;51.47;99391.00;10302376;28;20729;-67
2023/08/06 16:34:43;;;;;;;1.80;1.70;;;;;;;16.66;51.77;99390.75;10301696;28;20241;-70
2023/08/06 16:39:45;;;;;;;2.10;2.00;;;;;;;16.17;52.47;99432.19;10300953;28;20313;-70
2023/08/06 16:44:47;;;;;;;1.83;1.70;;;;;;;15.68;52.43;99472.69;10306074;28;20325;-70
2023/08/06 16:49:49;;;;;;;3.80;1.70;;;;;;;14.98;52.89;99501.78;10301138;28;20326;-67
2023/08/06 16:54:50;;;;;;;1.97;1.80;;;;;;;15.58;51.51;99467.00;10301824;28;20234;-70
2023/08/06 16:59:52;;;;;;;1.60;1.50;;;;;;;16.19;49.38;99475.16;10301164;28;20230;-67
2023/08/06 17:04:54;;;;;;;1.80;1.70;;;;;;;15.90;49.71;99496.50;10294776;28;20249;-69
2023/08/06 17:09:56;;;;;;;2.20;1.63;;;;;;;15.07;49.96;99570.53;10301773;28;20293;-69
2023/08/06 17:14:59;;;;;;;2.33;1.63;;;;;;;15.76;49.11;99513.88;10298952;28;20238;-69
2023/08/06 17:20:01;;;;;;;2.57;1.87;;;;;;;15.78;49.56;99522.59;10302048;28;20226;-69
2023/08/06 17:25:03;;;;;;;2.10;1.80;;;;;;;15.69;49.13;99586.81;10301176;28;20226;-69
2023/08/06 17:30:06;;;;;;;2.60;2.00;;;;;;;15.99;48.72;99583.38;10295207;28;20765;-67
2023/08/06 17:35:08;;;;;;;2.20;2.10;;;;;;;15.35;49.02;99532.34;10294501;28;20261;-68
2023/08/06 17:40:10;;;;;;;2.67;1.73;;;;;;;15.61;48.49;99622.16;10300291;28;20305;-68
2023/08/06 17:45:12;;;;;;;1.87;1.77;;;;;;;15.78;47.92;99600.84;10299465;28;20230;-68
2023/08/06 17:50:14;;;;;;;2.00;1.60;;;;;;;15.10;48.81;99634.75;10301661;28;20296;-65
2023/08/06 17:55:15;;;;;;;2.70;2.00;;;;;;;16.55;47.04;99524.72;10301226;28;20326;-67
2023/08/06 18:00:17;;;;;;;2.03;1.83;;;;;;;15.29;48.70;99570.97;10302858;28;20317;-68
2023/08/06 18:05:19;;;;;;;1.90;1.70;;;;;;;15.35;48.65;99583.56;10302819;28;20261;-70
2023/08/06 18:10:21;;;;;;;2.80;2.00;;;;;;;16.30;47.91;99509.50;10299524;28;20245;-70
2023/08/06 18:15:23;;;;;;;3.20;1.80;;;;;;;16.66;47.12;99499.63;10298784;28;20261;-71
2023/08/06 18:20:25;;;;;;;2.70;1.97;;;;;;;16.36;47.53;99542.84;10301626;28;20225;-66
2023/08/06 18:25:27;;;;;;;2.50;1.90;;;;;;;16.91;46.95;99533.75;10299269;28;20277;-67
2023/08/06 18:30:28;;;;;;;2.47;1.80;;;;;;;16.50;47.93;99530.00;10299958;28;20760;-65
2023/08/06 18:35:31;;;;;;;2.23;2.03;;;;;;;14.83;49.49;99661.91;10297866;28;20238;-65
2023/08/06 18:40:33;;;;;;;3.37;2.17;;;;;;;15.97;47.85;99564.69;10300103;28;20379;-66
2023/08/06 18:45:39;;;;;;;3.50;1.60;;;;;;;16.93;46.71;99464.06;10300233;28;20284;-68
2023/08/06 18:50:42;;;;;;;1.80;1.67;;;;;;;16.50;47.77;99436.31;10298312;28;20258;-66
2023/08/06 18:55:49;;;;;;;2.30;1.60;;;;;;;15.56;48.27;99541.09;10297756;28;20384;-67
2023/08/06 19:00:52;;;;;;;1.60;1.50;;;;;;;15.24;48.13;99636.31;10299369;28;20235;-66
2023/08/06 19:05:59;;;;;;;1.63;1.53;;;;;;;15.55;48.28;99566.41;10292827;28;20239;-67
2023/08/06 19:11:01;;;;;;;2.70;2.00;;;;;;;15.06;48.41;99575.09;10295923;28;20228;-66
2023/08/06 19:16:03;;;;;;;2.30;1.70;;;;;;;14.05;49.71;99678.88;10298185;28;20329;-66
2023/08/06 19:21:04;;;;;;;2.07;1.90;;;;;;;14.45;50.34;99554.16;10304399;28;20233;-66
2023/08/06 19:26:06;;;;;;;2.00;1.80;;;;;;;14.37;49.96;99604.50;10296734;28;20348;-67
2023/08/06 19:31:08;;;;;;;2.00;1.90;;;;;;;14.92;49.35;99560.09;10304836;28;20884;-67
2023/08/06 19:36:10;;;;;;;1.50;1.40;;;;;;;13.92;51.53;99600.88;10307974;28;20668;-69
2023/08/06 19:41:12;;;;;;;2.07;1.67;;;;;;;13.51;51.65;99667.34;10311960;28;20329;-68
2023/08/06 19:46:14;;;;;;;2.17;1.87;;;;;;;13.57;52.67;99591.25;10301494;28;20234;-67
2023/08/06 19:51:17;;;;;;;2.43;1.67;;;;;;;14.12;51.46;99558.66;10306054;28;20230;-69
2023/08/06 19:56:19;;;;;;;1.70;1.60;;;;;;;13.47;52.50;99596.22;10309471;28;20226;-68
2023/08/06 20:01:21;;;;;;;1.63;1.40;;;;;;;14.18;51.50;99605.41;10299763;28;20237;-67
2023/08/06 20:06:27;;;;;;;2.67;2.27;;;;;;;14.89;50.82;99541.66;10306011;28;20233;-67
2023/08/06 20:11:30;;;;;;;1.90;1.70;;;;;;;14.41;52.73;99537.59;10305839;28;20222;-68
2023/08/06 20:16:32;;;;;;;1.73;1.63;;;;;;;14.65;52.78;99498.28;10300551;28;20246;-68
2023/08/06 20:21:33;;;;;;;3.10;2.10;;;;;;;13.26;54.14;99707.38;10299620;28;20242;-67
2023/08/06 20:26:35;;;;;;;2.37;2.03;;;;;;;14.82;51.58;99619.81;10291445;28;20237;-67
2023/08/06 20:31:37;;;;;;;1.97;1.50;;;;;;;14.83;52.01;99574.84;10297073;28;20242;-66
2023/08/06 20:36:39;;;;;;;2.17;1.87;;;;;;;15.47;51.70;99492.81;10308046;28;20316;-67
2023/08/06 20:41:40;;;;;;;2.43;2.00;;;;;;;15.26;51.22;99547.16;10298913;28;20226;-68
2023/08/06 20:46:42;;;;;;;2.03;1.70;;;;;;;14.56;52.37;99586.59;10298557;28;20248;-67
2023/08/06 20:51:44;;;;;;;2.47;1.93;;;;;;;15.06;52.08;99536.53;10303520;28;20348;-68
2023/08/06 20:56:46;;;;;;;2.23;1.87;;;;;;;15.27;51.22;99595.47;10302874;28;20233;-68
2023/08/06 21:01:47;;;;;;;2.10;1.90;;;;;;;15.66;51.08;99563.81;10300834;28;20697;-68
2023/08/06 21:06:49;;;;;;;3.30;1.90;;;;;;;15.04;52.44;99585.28;10306171;28;20237;-68
2023/08/06 21:11:51;;;;;;;2.70;1.83;;;;;;;15.20;51.81;99592.00;10300538;28;20329;-68
2023/08/06 21:16:53;;;;;;;2.73;2.00;;;;;;;15.84;51.67;99514.44;10300760;28;20269;-68
2023/08/06 21:21:55;;;;;;;3.60;2.53;;;;;;;14.93;52.61;99607.50;10304549;28;20235;-68
2023/08/06 21:26:57;;;;;;;2.40;1.90;;;;;;;15.30;52.33;99561.81;10302817;28;20279;-68
2023/08/06 21:31:59;;;;;;;2.97;1.80;;;;;;;14.18;53.55;99694.19;10303027;28;20326;-68
2023/08/06 21:37:00;;;;;;;2.07;1.77;;;;;;;15.79;51.62;99519.69;10300559;28;20230;-66
2023/08/06 21:42:02;;;;;;;1.80;1.70;;;;;;;14.62;53.11;99651.41;10305457;28;20783;-66
2023/08/06 21:47:04;;;;;;;1.90;1.80;;;;;;;14.98;52.79;99572.66;10300173;28;20726;-66
2023/08/06 21:52:06;;;;;;;2.70;2.20;;;;;;;14.74;53.25;99577.75;10307989;28;20230;-69
2023/08/06 21:57:08;;;;;;;1.80;1.70;;;;;;;14.73;53.00;99605.75;10301880;28;20906;-66
2023/08/06 22:02:09;;;;;;;1.70;1.60;;;;;;;14.20;53.74;99657.94;10298191;28;20234;-66
2023/08/06 22:07:11;;;;;;;3.57;2.00;;;;;;;14.51;53.20;99632.19;10303271;28;20235;-69
2023/08/06 22:12:13;;;;;;;2.40;2.10;;;;;;;15.37;51.79;99573.41;10312922;28;20303;-68
2023/08/06 22:17:15;;;;;;;2.83;1.73;;;;;;;15.25;51.73;99594.00;10303436;28;20241;-68
2023/08/06 22:22:17;;;;;;;3.27;2.20;;;;;;;15.29;51.56;99582.56;10296176;28;20261;-68
2023/08/06 22:27:20;;;;;;;2.23;1.73;;;;;;;14.98;51.97;99656.19;10297472;28;20230;-66
2023/08/06 22:32:22;;;;;;;3.03;1.87;;;;;;;15.81;50.31;99620.09;10299473;28;20591;-66
2023/08/06 22:37:24;;;;;;;2.70;1.63;;;;;;;15.19;51.41;99659.59;10302094;28;20281;-68
2023/08/06 22:42:26;;;;;;;1.83;1.60;;;;;;;15.27;51.17;99672.81;10300461;28;20226;-69
2023/08/06 22:47:28;;;;;;;4.47;1.80;;;;;;;15.12;51.70;99657.75;10300573;28;20717;-68
2023/08/06 22:52:30;;;;;;;1.83;1.70;;;;;;;15.91;49.87;99632.22;10321497;28;20330;-66
2023/08/06 22:57:32;;;;;;;3.07;1.53;;;;;;;15.41;50.38;99687.84;10344576;28;20861;-68
2023/08/06 23:02:37;;;;;;;2.07;1.90;;;;;;;15.12;51.05;99691.97;10338946;28;20299;-69
2023/08/06 23:07:39;;;;;;;2.37;2.00;;;;;;;15.26;51.09;99663.06;10339057;28;20230;-69
2023/08/06 23:12:40;;;;;;;2.47;1.87;;;;;;;14.49;51.45;99771.56;10338183;28;20241;-69
2023/08/06 23:17:42;;;;;;;4.40;2.03;;;;;;;15.66;49.85;99693.25;10336808;28;20234;-66
2023/08/06 23:22:44;;;;;;;3.50;1.97;;;;;;;15.10;50.28;99746.09;10338164;28;20664;-69
2023/08/06 23:27:46;;;;;;;3.07;2.17;;;;;;;15.38;49.58;99741.38;10343220;28;20228;-69